createdAt,value
2023-06-24T00:00:12.234Z,6.95
2023-06-24T00:02:44.903Z,6.28
2023-06-24T00:05:13.636Z,6.00
2023-06-24T00:07:46.560Z,5.90
2023-06-24T00:10:17.221Z,5.90
2023-06-24T00:12:47.663Z,5.22
2023-06-24T00:15:16.404Z,5.90
2023-06-24T00:17:46.348Z,6.18
2023-06-24T00:20:15.491Z,5.30
2023-06-24T00:22:45.520Z,5.70
2023-06-24T00:25:14.497Z,6.15
2023-06-24T00:27:44.309Z,6.00
2023-06-24T00:30:13.977Z,6.38
2023-06-24T00:32:42.671Z,6.38
2023-06-24T00:35:13.398Z,6.00
2023-06-24T00:37:46.240Z,5.70
2023-06-24T00:40:16.209Z,5.47
2023-06-24T00:42:46.421Z,6.05
2023-06-24T00:45:17.509Z,5.82
2023-06-24T00:47:46.602Z,5.35
2023-06-24T00:50:17.273Z,5.47
2023-06-24T00:52:46.078Z,5.50
2023-06-24T00:55:16.827Z,5.95
2023-06-24T00:57:47.071Z,5.97
2023-06-24T01:00:19.600Z,5.50
2023-06-24T01:02:49.474Z,6.03
2023-06-24T01:05:24.349Z,5.68
2023-06-24T01:07:57.026Z,5.32
2023-06-24T01:10:27.115Z,5.55
2023-06-24T01:12:56.064Z,6.10
2023-06-24T01:15:25.124Z,5.50
2023-06-24T01:18:01.070Z,5.70
2023-06-24T01:20:38.825Z,5.57
2023-06-24T01:23:49.034Z,5.45
2023-06-24T01:26:30.988Z,5.20
2023-06-24T01:29:17.329Z,5.45
2023-06-24T01:31:51.215Z,5.65
2023-06-24T01:34:26.995Z,6.10
2023-06-24T01:37:03.846Z,5.70
2023-06-24T01:39:35.018Z,5.75
2023-06-24T01:42:10.568Z,5.18
2023-06-24T01:44:40.996Z,5.93
2023-06-24T01:47:13.341Z,6.00
2023-06-24T01:49:44.639Z,5.28
2023-06-24T01:52:15.406Z,5.50
2023-06-24T01:54:44.807Z,5.55
2023-06-24T01:57:15.073Z,5.95
2023-06-24T01:59:48.047Z,6.00
2023-06-24T02:02:21.533Z,5.15
2023-06-24T02:04:51.868Z,5.50
2023-06-24T02:07:22.128Z,5.47
2023-06-24T02:09:52.209Z,5.35
2023-06-24T02:12:22.888Z,5.68
2023-06-24T02:14:53.058Z,5.75
2023-06-24T02:17:26.291Z,5.88
2023-06-24T02:19:57.133Z,5.30
2023-06-24T02:22:30.549Z,6.20
2023-06-24T02:25:00.703Z,6.25
2023-06-24T02:27:30.965Z,6.13
2023-06-24T02:30:00.656Z,6.28
2023-06-24T02:32:31.113Z,5.70
2023-06-24T02:35:00.886Z,5.88
2023-06-24T02:37:31.461Z,5.78
2023-06-24T02:40:01.097Z,5.72
2023-06-24T02:42:30.143Z,6.20
2023-06-24T02:44:59.137Z,5.82
2023-06-24T02:47:30.325Z,6.38
2023-06-24T02:50:00.494Z,6.50
2023-06-24T02:52:30.507Z,6.47
2023-06-24T02:55:00.222Z,6.13
2023-06-24T02:57:47.331Z,6.72
2023-06-24T03:00:39.933Z,6.60
2023-06-24T03:03:10.637Z,6.40
2023-06-24T03:05:54.666Z,5.85
2023-06-24T03:08:25.268Z,6.40
2023-06-24T03:10:57.867Z,6.35
2023-06-24T03:13:28.337Z,6.65
2023-06-24T03:16:05.478Z,6.22
2023-06-24T03:18:43.796Z,6.15
2023-06-24T03:21:12.641Z,6.30
2023-06-24T03:23:44.338Z,6.43
2023-06-24T03:26:15.236Z,6.63
2023-06-24T03:28:45.142Z,6.47
2023-06-24T03:31:18.088Z,6.95
2023-06-24T03:33:48.537Z,7.00
2023-06-24T03:36:18.867Z,6.85
2023-06-24T03:38:47.494Z,6.55
2023-06-24T03:41:16.135Z,6.88
2023-06-24T03:43:45.951Z,7.38
2023-06-24T03:46:14.919Z,6.88
2023-06-24T03:48:43.661Z,6.55
2023-06-24T03:51:13.724Z,7.28
2023-06-24T03:53:42.591Z,6.25
2023-06-24T03:56:11.162Z,6.90
2023-06-24T03:58:39.820Z,6.53
2023-06-24T04:01:10.342Z,6.55
2023-06-24T04:03:39.181Z,6.75
2023-06-24T04:06:07.864Z,7.13
2023-06-24T04:08:40.525Z,6.07
2023-06-24T04:11:09.802Z,6.07
2023-06-24T04:13:38.508Z,6.88
2023-06-24T04:16:07.512Z,7.88
2023-06-24T04:18:38.263Z,6.70
2023-06-24T04:21:07.528Z,7.05
2023-06-24T04:23:37.909Z,7.45
2023-06-24T04:26:06.595Z,6.82
2023-06-24T04:28:35.384Z,7.30
2023-06-24T04:31:03.968Z,7.07
2023-06-24T04:33:33.314Z,7.22
2023-06-24T04:36:02.159Z,6.82
2023-06-24T04:38:30.985Z,8.00
2023-06-24T04:41:02.934Z,7.18
2023-06-24T04:43:31.857Z,7.40
2023-06-24T04:46:02.237Z,7.32
2023-06-24T04:48:30.918Z,6.85
2023-06-24T04:50:59.707Z,6.35
2023-06-24T04:53:28.794Z,6.32
2023-06-24T04:55:57.421Z,6.82
2023-06-24T04:58:27.428Z,6.57
2023-06-24T05:00:56.295Z,6.95
2023-06-24T05:03:24.858Z,5.90
2023-06-24T05:05:53.578Z,6.28
2023-06-24T05:08:22.163Z,6.18
2023-06-24T05:10:50.794Z,6.68
2023-06-24T05:13:19.375Z,6.10
2023-06-24T05:15:49.389Z,6.30
2023-06-24T05:18:17.971Z,5.93
2023-06-24T05:20:46.571Z,6.13
2023-06-24T05:23:15.162Z,5.97
2023-06-24T05:25:43.692Z,6.75
2023-06-24T05:28:12.347Z,5.65
2023-06-24T05:30:43.616Z,6.00
2023-06-24T05:33:13.609Z,6.15
2023-06-24T05:35:44.594Z,6.30
2023-06-24T05:38:13.231Z,6.07
2023-06-24T05:40:41.793Z,6.50
2023-06-24T05:43:10.419Z,5.43
2023-06-24T05:45:39.190Z,5.88
2023-06-24T05:48:08.316Z,6.13
2023-06-24T05:50:38.261Z,5.70
2023-06-24T05:53:06.884Z,5.63
2023-06-24T05:55:35.725Z,5.35
2023-06-24T05:58:04.556Z,6.10
2023-06-24T06:00:33.143Z,6.28
2023-06-24T06:03:01.720Z,5.63
2023-06-24T06:05:30.350Z,5.40
2023-06-24T06:08:00.261Z,5.25
2023-06-24T06:10:28.826Z,5.60
2023-06-24T06:12:57.791Z,5.10
2023-06-24T06:15:26.422Z,5.80
2023-06-24T06:17:55.190Z,5.30
2023-06-24T06:20:23.839Z,5.05
2023-06-24T06:22:52.466Z,5.22
2023-06-24T06:25:22.393Z,5.63
2023-06-24T06:27:50.984Z,4.63
2023-06-24T06:30:19.651Z,5.80
2023-06-24T06:32:49.909Z,6.03
2023-06-24T06:35:18.817Z,5.43
2023-06-24T06:37:48.889Z,5.25
2023-06-24T06:40:17.451Z,5.63
2023-06-24T06:42:47.465Z,7.68
2023-06-24T06:45:19.309Z,7.43
2023-06-24T06:47:47.989Z,6.88
2023-06-24T06:50:16.581Z,7.15
2023-06-24T06:52:45.233Z,6.75
2023-06-24T06:55:13.920Z,6.60
2023-06-24T06:57:42.568Z,6.30
2023-06-24T07:00:13.655Z,7.88
2023-06-24T07:02:42.301Z,7.85
2023-06-24T07:05:12.528Z,7.05
2023-06-24T07:07:41.247Z,6.03
2023-06-24T07:10:10.547Z,8.48
2023-06-24T07:12:39.081Z,6.93
2023-06-24T07:15:08.771Z,7.75
2023-06-24T07:17:39.514Z,7.20
2023-06-24T07:20:09.105Z,7.18
2023-06-24T07:22:37.666Z,6.78
2023-06-24T07:25:06.665Z,7.30
2023-06-24T07:27:35.217Z,7.57
2023-06-24T07:30:03.877Z,7.25
2023-06-24T07:32:32.591Z,8.27
2023-06-24T07:35:03.371Z,8.00
2023-06-24T07:37:32.039Z,7.80
2023-06-24T07:40:00.592Z,7.20
2023-06-24T07:42:31.428Z,6.90
2023-06-24T07:45:00.207Z,6.68
2023-06-24T07:47:28.873Z,7.78
2023-06-24T07:49:57.787Z,6.90
2023-06-24T07:52:27.731Z,6.30
2023-06-24T07:54:56.358Z,7.25
2023-06-24T07:57:24.901Z,6.97
2023-06-24T07:59:55.686Z,6.38
2023-06-24T08:02:25.072Z,6.93
2023-06-24T08:04:53.874Z,7.15
2023-06-24T08:07:22.800Z,8.27
2023-06-24T08:09:52.771Z,6.70
2023-06-24T08:12:21.356Z,6.63
2023-06-24T08:14:49.928Z,7.00
2023-06-24T08:17:18.437Z,6.50
2023-06-24T08:19:46.957Z,7.45
2023-06-24T08:22:15.496Z,6.47
2023-06-24T08:24:44.076Z,7.47
2023-06-24T08:27:16.816Z,5.85
2023-06-24T08:29:45.420Z,7.60
2023-06-24T08:32:14.093Z,7.00
2023-06-24T08:34:42.613Z,6.35
2023-06-24T08:37:11.484Z,7.25
2023-06-24T08:39:40.217Z,6.40
2023-06-24T08:42:09.080Z,6.35
2023-06-24T08:44:39.120Z,6.70
2023-06-24T08:47:08.475Z,5.53
2023-06-24T08:49:45.209Z,6.20
2023-06-24T08:52:17.419Z,6.32
2023-06-24T08:54:50.547Z,7.20
2023-06-24T08:57:19.838Z,6.75
2023-06-24T08:59:50.053Z,6.60
2023-06-24T09:02:18.772Z,5.80
2023-06-24T09:04:47.469Z,5.70
2023-06-24T09:07:25.397Z,5.32
2023-06-24T09:09:54.300Z,6.60
2023-06-24T09:12:22.914Z,5.45
2023-06-24T09:14:53.270Z,5.70
2023-06-24T09:17:23.594Z,5.18
2023-06-24T09:19:53.010Z,4.82
2023-06-24T09:22:21.860Z,5.25
2023-06-24T09:24:51.170Z,5.47
2023-06-24T09:27:22.819Z,6.35
2023-06-24T09:29:52.707Z,5.45
2023-06-24T09:32:21.472Z,5.60
2023-06-24T09:34:50.155Z,6.28
2023-06-24T09:37:24.844Z,5.18
2023-06-24T09:39:54.351Z,5.55
2023-06-24T09:42:23.998Z,5.07
2023-06-24T09:44:56.970Z,4.40
2023-06-24T09:47:26.411Z,5.50
2023-06-24T09:49:56.209Z,5.53
2023-06-24T09:52:25.316Z,6.75
2023-06-24T09:54:56.108Z,5.20
2023-06-24T09:57:30.786Z,4.80
2023-06-24T10:00:02.230Z,5.30
2023-06-24T10:02:35.590Z,5.32
2023-06-24T10:05:05.550Z,5.75
2023-06-24T10:07:37.116Z,5.68
2023-06-24T10:10:06.442Z,5.53
2023-06-24T10:12:37.002Z,6.10
2023-06-24T10:15:08.212Z,5.47
2023-06-24T10:17:36.921Z,6.18
2023-06-24T10:20:09.564Z,5.93
2023-06-24T10:22:38.241Z,6.07
2023-06-24T10:25:09.499Z,5.57
2023-06-24T10:27:43.416Z,5.18
2023-06-24T10:30:20.714Z,5.20
2023-06-24T10:32:54.568Z,5.00
2023-06-24T10:35:28.243Z,5.35
2023-06-24T10:37:58.286Z,4.50
2023-06-24T10:40:40.408Z,4.45
2023-06-24T10:43:28.578Z,5.00
2023-06-24T10:46:00.549Z,4.53
2023-06-24T10:48:29.507Z,4.68
2023-06-24T10:50:57.998Z,4.53
2023-06-24T10:53:26.703Z,4.80
2023-06-24T10:55:59.579Z,5.20
2023-06-24T10:58:28.210Z,4.43
2023-06-24T11:01:10.608Z,4.65
2023-06-24T11:03:43.031Z,4.18
2023-06-24T11:06:13.222Z,4.40
2023-06-24T11:08:46.290Z,4.70
2023-06-24T11:11:22.191Z,5.30
2023-06-24T11:13:50.820Z,4.32
2023-06-24T11:16:24.104Z,4.43
2023-06-24T11:18:52.651Z,4.15
2023-06-24T11:21:21.207Z,4.40
2023-06-24T11:23:49.800Z,3.97
2023-06-24T11:26:18.403Z,4.55
2023-06-24T11:28:46.969Z,4.70
2023-06-24T11:31:16.066Z,4.57
2023-06-24T11:33:50.449Z,4.55
2023-06-24T11:36:19.870Z,4.47
2023-06-24T11:38:48.791Z,4.47
2023-06-24T11:41:17.776Z,4.53
2023-06-24T11:43:47.031Z,4.70
2023-06-24T11:46:23.422Z,4.45
2023-06-24T11:48:53.346Z,5.35
2023-06-24T11:51:25.756Z,5.22
2023-06-24T11:53:54.294Z,5.13
2023-06-24T11:56:37.151Z,4.63
2023-06-24T11:59:07.531Z,4.50
2023-06-24T12:01:38.999Z,4.43
2023-06-24T12:04:14.446Z,4.40
2023-06-24T12:06:43.501Z,4.28
2023-06-24T12:09:12.399Z,4.00
2023-06-24T12:11:41.283Z,4.45
2023-06-24T12:14:09.966Z,4.22
2023-06-24T12:16:38.557Z,4.57
2023-06-24T12:19:07.382Z,4.25
2023-06-24T12:21:37.544Z,4.05
2023-06-24T12:24:06.965Z,4.32
2023-06-24T12:26:37.775Z,3.92
2023-06-24T12:29:06.425Z,4.70
2023-06-24T12:31:35.072Z,4.20
2023-06-24T12:34:03.607Z,4.32
2023-06-24T12:36:32.229Z,3.88
2023-06-24T12:39:02.329Z,3.88
2023-06-24T12:41:30.872Z,4.07
2023-06-24T12:44:00.066Z,4.28
2023-06-24T12:46:28.643Z,4.72
2023-06-24T12:48:57.589Z,4.30
2023-06-24T12:51:26.189Z,4.10
2023-06-24T12:53:54.763Z,4.60
2023-06-24T12:56:24.643Z,4.20
2023-06-24T12:58:53.192Z,4.03
2023-06-24T13:01:21.875Z,4.13
2023-06-24T13:03:50.510Z,4.10
2023-06-24T13:06:19.171Z,4.45
2023-06-24T13:08:47.690Z,4.65
2023-06-24T13:11:16.343Z,4.30
2023-06-24T13:13:48.247Z,4.88
2023-06-24T13:16:17.062Z,4.25
2023-06-24T13:18:45.862Z,4.53
2023-06-24T13:21:16.538Z,4.10
2023-06-24T13:23:47.387Z,4.28
2023-06-24T13:26:16.351Z,4.10
2023-06-24T13:28:46.457Z,4.50
2023-06-24T13:31:16.960Z,3.90
2023-06-24T13:33:45.914Z,3.53
2023-06-24T13:36:30.675Z,4.18
2023-06-24T13:38:59.308Z,3.70
2023-06-24T13:41:30.407Z,4.32
2023-06-24T13:44:00.942Z,4.30
2023-06-24T13:46:30.569Z,4.03
2023-06-24T13:48:59.625Z,3.95
2023-06-24T13:51:28.414Z,4.10
2023-06-24T13:53:57.892Z,4.80
2023-06-24T13:56:27.384Z,4.10
2023-06-24T13:58:56.196Z,4.20
2023-06-24T14:01:26.524Z,4.13
2023-06-24T14:03:55.175Z,4.40
2023-06-24T14:06:25.456Z,3.95
2023-06-24T14:08:55.573Z,5.72
2023-06-24T14:11:24.179Z,3.90
2023-06-24T14:13:54.313Z,3.50
2023-06-24T14:16:24.208Z,4.07
2023-06-24T14:18:54.272Z,4.47
2023-06-24T14:21:22.893Z,4.25
2023-06-24T14:23:53.045Z,4.10
2023-06-24T14:26:23.762Z,4.78
2023-06-24T14:28:52.343Z,4.38
2023-06-24T14:31:20.987Z,4.35
2023-06-24T14:33:49.618Z,4.00
2023-06-24T14:36:19.655Z,4.50
2023-06-24T14:38:48.288Z,4.50
2023-06-24T14:41:16.887Z,6.63
2023-06-24T14:43:45.669Z,5.88
2023-06-24T14:46:14.268Z,3.85
2023-06-24T14:48:42.909Z,4.30
2023-06-24T14:51:11.535Z,4.60
2023-06-24T14:53:41.602Z,4.13
2023-06-24T14:56:10.290Z,4.40
2023-06-24T14:58:38.980Z,4.22
2023-06-24T15:01:07.687Z,4.25
2023-06-24T15:03:36.465Z,4.00
2023-06-24T15:06:05.167Z,3.58
2023-06-24T15:08:33.678Z,4.00
2023-06-24T15:11:03.923Z,3.85
2023-06-24T15:13:32.457Z,4.20
2023-06-24T15:16:01.037Z,4.22
2023-06-24T15:18:30.983Z,4.22
2023-06-24T15:20:59.509Z,3.80
2023-06-24T15:23:28.121Z,4.13
2023-06-24T15:25:57.050Z,4.30
2023-06-24T15:28:27.667Z,3.33
2023-06-24T15:30:56.263Z,4.00
2023-06-24T15:33:24.827Z,3.60
2023-06-24T15:35:54.457Z,3.90
2023-06-24T15:38:23.239Z,3.88
2023-06-24T15:40:51.816Z,3.67
2023-06-24T15:43:20.374Z,4.13
2023-06-24T15:45:50.526Z,3.83
2023-06-24T15:48:19.140Z,3.97
2023-06-24T15:50:47.731Z,4.00
2023-06-24T15:53:16.503Z,4.45
2023-06-24T15:55:45.104Z,3.95
2023-06-24T15:58:13.618Z,6.88
2023-06-24T16:00:42.252Z,4.45
2023-06-24T16:03:12.313Z,3.92
2023-06-24T16:05:41.065Z,3.35
2023-06-24T16:08:09.557Z,3.40
2023-06-24T16:10:38.303Z,3.55
2023-06-24T16:13:07.047Z,3.47
2023-06-24T16:15:35.583Z,3.72
2023-06-24T16:18:04.248Z,3.65
2023-06-24T16:20:34.459Z,4.82
2023-06-24T16:23:05.220Z,4.32
2023-06-24T16:25:34.070Z,3.60
2023-06-24T16:28:02.775Z,3.35
2023-06-24T16:30:31.335Z,3.65
2023-06-24T16:32:59.867Z,3.67
2023-06-24T16:35:28.451Z,3.83
2023-06-24T16:37:58.444Z,3.67
2023-06-24T16:40:30.366Z,3.72
2023-06-24T16:42:59.122Z,3.80
2023-06-24T16:45:27.659Z,3.67
2023-06-24T16:47:56.328Z,3.60
2023-06-24T16:50:24.860Z,3.30
2023-06-24T16:52:53.574Z,3.70
2023-06-24T16:55:23.466Z,3.72
2023-06-24T16:57:52.129Z,3.35
2023-06-24T17:00:21.106Z,3.70
2023-06-24T17:02:49.961Z,3.50
2023-06-24T17:05:18.635Z,3.80
2023-06-24T17:07:47.190Z,3.30
2023-06-24T17:10:15.803Z,3.40
2023-06-24T17:12:45.782Z,3.38
2023-06-24T17:15:16.716Z,3.72
2023-06-24T17:17:45.462Z,3.40
2023-06-24T17:20:14.136Z,3.20
2023-06-24T17:22:42.988Z,3.60
2023-06-24T17:25:11.611Z,3.50
2023-06-24T17:27:40.208Z,3.60
2023-06-24T17:30:11.627Z,3.22
2023-06-24T17:32:40.193Z,3.55
2023-06-24T17:35:09.570Z,2.83
2023-06-24T17:37:38.342Z,3.15
2023-06-24T17:40:08.398Z,3.30
2023-06-24T17:42:37.079Z,2.92
2023-06-24T17:45:06.711Z,3.28
2023-06-24T17:47:36.580Z,3.30
2023-06-24T17:50:06.237Z,3.22
2023-06-24T17:52:34.826Z,3.13
2023-06-24T17:55:03.880Z,2.85
2023-06-24T17:57:32.522Z,2.85
2023-06-24T18:00:01.164Z,2.95
2023-06-24T18:02:31.743Z,2.90
2023-06-24T18:05:01.958Z,3.05
2023-06-24T18:07:30.684Z,2.97
2023-06-24T18:09:59.316Z,3.22
2023-06-24T18:12:27.889Z,2.70
2023-06-24T18:14:56.472Z,3.13
2023-06-24T18:17:25.066Z,2.85
2023-06-24T18:19:53.642Z,3.55
2023-06-24T18:22:23.586Z,3.10
2023-06-24T18:24:53.811Z,2.78
2023-06-24T18:27:24.730Z,3.00
2023-06-24T18:29:54.202Z,3.45
2023-06-24T18:32:23.380Z,2.97
2023-06-24T18:34:54.400Z,3.13
2023-06-24T18:37:24.404Z,2.72
2023-06-24T18:39:53.200Z,3.40
2023-06-24T18:42:23.791Z,3.40
2023-06-24T18:44:52.303Z,3.00
2023-06-24T18:47:20.843Z,2.92
2023-06-24T18:49:49.437Z,2.80
2023-06-24T18:52:18.210Z,2.80
2023-06-24T18:54:48.780Z,3.03
2023-06-24T18:57:17.350Z,2.85
2023-06-24T18:59:46.501Z,2.85
2023-06-24T19:02:15.089Z,3.17
2023-06-24T19:04:43.937Z,3.20
2023-06-24T19:07:12.730Z,2.70
2023-06-24T19:09:41.315Z,2.90
2023-06-24T19:12:11.404Z,3.05
2023-06-24T19:14:40.011Z,3.30
2023-06-24T19:17:08.620Z,3.10
2023-06-24T19:19:37.176Z,3.28
2023-06-24T19:22:08.496Z,3.30
2023-06-24T19:24:38.622Z,3.38
2023-06-24T19:27:07.263Z,3.20
2023-06-24T19:29:37.134Z,3.80
2023-06-24T19:32:06.622Z,4.78
2023-06-24T19:34:36.146Z,3.75
2023-06-24T19:37:06.391Z,4.75
2023-06-24T19:39:35.127Z,3.80
2023-06-24T19:42:03.713Z,4.97
2023-06-24T19:44:32.243Z,5.30
2023-06-24T19:47:02.318Z,9.00
2023-06-24T19:49:30.902Z,9.13
2023-06-24T19:51:59.530Z,11.18
2023-06-24T19:54:28.182Z,10.57
2023-06-24T19:56:56.672Z,8.35
2023-06-24T19:59:25.186Z,6.45
2023-06-24T20:01:53.745Z,6.22
2023-06-24T20:04:23.742Z,6.75
2023-06-24T20:06:52.343Z,5.35
2023-06-24T20:09:20.938Z,5.20
2023-06-24T20:11:49.503Z,4.32
2023-06-24T20:14:18.066Z,4.03
2023-06-24T20:16:46.680Z,4.20
2023-06-24T20:19:15.204Z,3.90
2023-06-24T20:21:45.116Z,3.95
2023-06-24T20:24:13.694Z,3.90
2023-06-24T20:26:43.166Z,4.00
2023-06-24T20:29:12.257Z,4.05
2023-06-24T20:31:40.911Z,4.20
2023-06-24T20:34:09.523Z,3.72
2023-06-24T20:36:38.075Z,3.70
2023-06-24T20:39:08.099Z,3.70
2023-06-24T20:41:36.681Z,3.92
2023-06-24T20:44:05.605Z,4.15
2023-06-24T20:46:34.375Z,4.30
2023-06-24T20:49:02.993Z,3.83
2023-06-24T20:51:32.660Z,3.90
2023-06-24T20:54:01.163Z,4.90
2023-06-24T20:56:31.572Z,4.50
2023-06-24T20:59:00.155Z,4.10
2023-06-24T21:01:28.737Z,4.00
2023-06-24T21:03:57.447Z,4.50
2023-06-24T21:06:27.296Z,4.25
2023-06-24T21:08:55.850Z,3.85
2023-06-24T21:11:24.348Z,3.95
2023-06-24T21:13:54.294Z,4.78
2023-06-24T21:16:22.941Z,4.38
2023-06-24T21:18:51.532Z,4.18
2023-06-24T21:21:20.056Z,3.95
2023-06-24T21:23:48.919Z,4.32
2023-06-24T21:26:17.524Z,4.28
2023-06-24T21:28:46.056Z,4.38
2023-06-24T21:31:15.979Z,4.25
2023-06-24T21:33:44.624Z,4.55
2023-06-24T21:36:13.242Z,3.88
2023-06-24T21:38:41.810Z,4.40
2023-06-24T21:41:10.335Z,4.18
2023-06-24T21:43:38.900Z,4.40
2023-06-24T21:46:07.576Z,4.50
2023-06-24T21:48:37.474Z,4.43
2023-06-24T21:51:06.147Z,4.15
2023-06-24T21:53:34.664Z,3.90
2023-06-24T21:56:03.385Z,3.75
2023-06-24T21:58:32.137Z,4.30
2023-06-24T22:01:00.689Z,4.30
2023-06-24T22:03:29.388Z,4.35
2023-06-24T22:05:59.545Z,4.00
2023-06-24T22:08:28.111Z,3.85
2023-06-24T22:10:56.640Z,4.10
2023-06-24T22:13:25.290Z,4.25
2023-06-24T22:15:53.784Z,4.38
2023-06-24T22:18:22.283Z,4.13
2023-06-24T22:20:50.862Z,4.60
2023-06-24T22:23:20.803Z,4.13
2023-06-24T22:25:49.568Z,4.43
2023-06-24T22:28:18.083Z,4.43
2023-06-24T22:30:46.796Z,3.97
2023-06-24T22:33:15.383Z,4.20
2023-06-24T22:35:43.900Z,4.00
2023-06-24T22:38:12.431Z,4.28
2023-06-24T22:40:42.269Z,4.00
2023-06-24T22:43:10.833Z,3.75
2023-06-24T22:45:39.374Z,3.70
2023-06-24T22:48:08.330Z,4.18
2023-06-24T22:50:36.917Z,3.95
2023-06-24T22:53:05.617Z,3.70
2023-06-24T22:55:34.103Z,3.95
2023-06-24T22:58:04.081Z,3.92
2023-06-24T23:00:32.753Z,3.63
2023-06-24T23:03:01.792Z,3.50
2023-06-24T23:05:31.741Z,3.50
2023-06-24T23:08:00.758Z,3.97
2023-06-24T23:10:30.134Z,3.53
2023-06-24T23:12:59.936Z,3.50
2023-06-24T23:15:30.458Z,3.30
2023-06-24T23:17:59.531Z,3.70
2023-06-24T23:20:28.282Z,3.58
2023-06-24T23:22:57.290Z,3.30
2023-06-24T23:25:29.982Z,3.15
2023-06-24T23:27:59.651Z,3.00
2023-06-24T23:30:36.893Z,3.83
2023-06-24T23:33:07.235Z,3.22
2023-06-24T23:35:36.290Z,3.78
2023-06-24T23:38:05.208Z,3.03
2023-06-24T23:40:34.457Z,3.70
2023-06-24T23:43:04.466Z,3.25
2023-06-24T23:45:34.895Z,3.83
2023-06-24T23:48:03.429Z,3.70
2023-06-24T23:50:32.029Z,3.83
2023-06-24T23:53:01.176Z,3.03
2023-06-24T23:55:29.831Z,3.92
2023-06-24T23:57:58.553Z,3.53
